Victor Giraldo

Scout - Millonarios
19 Aug 2027
Donnerstag
Verarbeitung

Persönlichkeit

Anpassungsfähigkeit (3) Ehrgeiz (4) Kontroverse (6) Loyalität (9) Druck (3) Professionalität (16) Fairness (15) Temperament (16)

Profil

Trainerstil Demokratisch
Lizenz Kontinentale B
Entschlossenheit 14
Menschenführung 10
Motivation 11
Disziplin 8
Arbeitszufriedenheit
100%
Ermüdung
0%
Rolle Scout
Gehalt 98.8K p/W
Vertrag 14.03.2029

Leistung

Verhalten Gut
Trainingseffektivität
45%
Spielerentwicklung
70%
Verletzungsprävention
55%
Taktische Umsetzung
35%

Letzte Ereignisse

Nahm an einer Scouting-Besprechung teil 7T her
Empfahl ein Transferziel 7T her
Nahm an einer Scouting-Besprechung teil 14T her
Empfahl ein Transferziel 14T her
Nahm an einer Scouting-Besprechung teil 14T her
Nahm an einer Scouting-Besprechung teil 21T her
Empfahl ein Transferziel 21T her
Nahm an einer Scouting-Besprechung teil 28T her

Aktuell beobachtet

192
Spieler Verein Status Fähigkeit Vertrauen Beobachtet Zuletzt beobachtet Letzte Stimme
Diego Martínez Jaguares Aktiv 124 / 124 44% 2 / 2m 21.07.2027 -
Brandon Caicedo Jaguares Aktiv 109 / 109 30% 1 / 1m 21.07.2027 -
Mohamed Belloumi Hull City Aktiv 146 / 143 40% 1 31.05.2027 -
Morgan Whittaker Middlesbrough Aktiv 135 / 130 40% 1 31.05.2027 -
Jack McGlynn Stoke City Aktiv 128 / 140 40% 1 31.05.2027 -
Filip Marschall Stevenage Aktiv 122 / 108 40% 4 29.05.2027 -
Jamie Cumming Oxford United Aktiv 135 / 134 40% 2 28.05.2027 -
Sergio Barlocco Trento Aktiv 109 / 111 40% 1 28.05.2027 -
Kostantis Tzolakis Hull City Aktiv 138 / 138 40% 1 28.05.2027 -
Daniel Iversen Preston Aktiv 128 / 130 40% 4 27.05.2027 -
Caoimhin Kelleher Brentford Aktiv 151 / 150 40% 3 27.05.2027 -
Lorenzo Palmisani Frosinone Aktiv 126 / 131 40% 4 27.05.2027 -
Pol Tristán Barnsley Aktiv 112 / 113 40% 2 26.05.2027 -
Samuele Perisan Audace Cerignola Aktiv 115 / 112 40% 2 26.05.2027 -
Nicolas Madsen Queens Park Rangers Aktiv 138 / 122 40% 1 25.05.2027 -
Di'Shon Bernard Sheffield Wednesday Aktiv 114 / 114 40% 1 25.05.2027 -
Radek Vítek Middlesbrough Aktiv 133 / 147 40% 3 24.05.2027 -
Quinten Timber Crystal Palace Aktiv 157 / 153 40% 5 24.05.2027 -
Welington Southampton Aktiv 140 / 131 40% 2 24.05.2027 -
Justin Bijlow Genoa Aktiv 151 / 145 40% 1 24.05.2027 -
Max Bird Birmingham Aktiv 137 / 139 40% 4 23.05.2027 -
Bobby Thomas Coventry City Aktiv 139 / 127 40% 2 23.05.2027 -
Harry Clarke Preston Aktiv 137 / 123 40% 5 23.05.2027 -
Francesco D'Alterio Ternana Aktiv 115 / 106 40% 4 21.05.2027 -
Aidan Morris Middlesbrough Aktiv 122 / 136 40% 4 20.05.2027 -
Tariq Lamptey Queens Park Rangers Aktiv 139 / 136 40% 2 20.05.2027 -
Murphy Cooper Plymouth Argyle Aktiv 114 / 118 40% 3 19.05.2027 -
Alfie Whiteman Newport County Aktiv 100 / 101 40% 3 15.05.2027 -
Zach Hemming Chesterfield Aktiv 104 / 115 40% 1 15.05.2027 -
James Trafford Leeds United Aktiv 153 / 148 40% 2 13.05.2027 -
Andrea Zaccagno Torres Aktiv 105 / 106 40% 1 13.05.2027 -
Shea Charles Southampton Aktiv 144 / 144 40% 4 12.05.2027 -
Ousmane Diomande Nottingham Forest Aktiv 145 / 162 40% 3 12.05.2027 -
Ryan Sessegnon Fulham Aktiv 150 / 148 40% 5 10.05.2027 -
Alessandro Buongiorno Sassuolo Aktiv 158 / 157 40% 2 10.05.2027 -
Kristoffer Lund Birmingham Aktiv 127 / 128 40% 3 10.05.2027 -
Will Dennis Milton Keynes Dons Aktiv 102 / 112 40% 3 09.05.2027 -
Luke McNally Bristol City Aktiv 126 / 124 40% 1 08.05.2027 -
Balázs Tóth Blackburn Rovers Aktiv 133 / 122 40% 1 06.05.2027 -
Riccardo Gagno Vicenza Aktiv 118 / 124 40% 2 05.05.2027 -
Arijanet Murić Sassuolo Aktiv 149 / 146 40% 1 02.05.2027 -
Jacob Widell Zetterström Derby County Aktiv 139 / 131 40% 1 02.05.2027 -
Robin Roefs Sunderland Aktiv 153 / 152 40% 2 30.04.2027 -
Leif Davis Ipswich Town Aktiv 132 / 144 40% 2 28.04.2027 -
Juan Mosquera Sheffield Wednesday Aktiv 133 / 120 40% 1 28.04.2027 -
Adrien Truffert Bournemouth Aktiv 153 / 153 40% 7 27.04.2027 Beobachten
Adam Wharton Crystal Palace Aktiv 151 / 151 40% 4 27.04.2027 -
Williams Manyama SuperSport United Aktiv 115 / 111 40% 3 27.04.2027 -
Milan van Ewijk Mansfield Town Aktiv 125 / 137 40% 4 25.04.2027 -
Lewis Ferguson Bologna Aktiv 139 / 145 40% 1 25.04.2027 -
Florentino Luís Ipswich Town Aktiv 149 / 143 40% 9 21.04.2027 -
Callum Doyle Wrexham Aktiv 126 / 127 40% 4 21.04.2027 -
Lucas Da Cunha Como Aktiv 137 / 152 40% 1 21.04.2027 -
Elia Boseggia Novara Aktiv 107 / 114 40% 1 21.04.2027 -
Imrân Louza Watford Aktiv 139 / 132 40% 1 19.04.2027 -
Bradley Mabunda SuperSport United Aktiv 121 / 113 40% 1 19.04.2027 -
Michele Cerofolini Bari Aktiv 122 / 121 40% 1 16.04.2027 -
Brian De Keersmaecker Oxford United Aktiv 115 / 121 40% 3 15.04.2027 -
Yussif Saidu Zaragoza Aktiv 127 / 122 40% 3 15.04.2027 -
Lukas Jensen Millwall Aktiv 119 / 113 40% 1 14.04.2027 -
Jordan Amissah Burton Albion Aktiv 113 / 102 40% 1 14.04.2027 -
Mandla Erasmus SuperSport United Aktiv 116 / 118 40% 5 04.04.2027 -
Christian Krasnodar Aktiv 139 / 131 40% 5 03.04.2027 -
Ronnie Edwards Queens Park Rangers Aktiv 133 / 125 40% 1 02.04.2027 -
Josh Tymon Swansea City Aktiv 120 / 121 40% 2 01.04.2027 -
Gabriel Gudmundsson Leeds United Aktiv 134 / 136 40% 1 01.04.2027 -
Andrea Carboni Monza Aktiv 125 / 134 40% 1 31.03.2027 -
Yehor Yarmoliuk Brentford Aktiv 149 / 145 40% 2 27.03.2027 -
Adam Randell Bristol City Aktiv 124 / 125 40% 1 26.03.2027 -
Nathan Collins Brentford Aktiv 150 / 148 40% 4 24.03.2027 -
Ethan Galbraith Swansea City Aktiv 140 / 129 40% 2 22.03.2027 -
Derry Murkin Derby County Aktiv 132 / 134 40% 2 21.03.2027 -
Nicolò Rovella Lazio Aktiv 146 / 143 40% 1 21.03.2027 -
Murillo Nottingham Forest Aktiv 144 / 146 40% 1 10.03.2027 -
Juanlu Bournemouth Aktiv 148 / 146 40% 4 08.03.2027 -
Japhet Tanganga Sheffield United Aktiv 136 / 132 40% 1 07.03.2027 -
Ilay Camara Anderlecht Aktiv 136 / 138 40% 2 01.03.2027 -
Will Fish Cardiff City Aktiv 117 / 122 40% 1 01.03.2027 -
Michael Kayode Brentford Aktiv 144 / 145 40% 2 28.02.2027 -
Aaron Hickey Brentford Aktiv 140 / 140 40% 1 26.02.2027 -
Israel Reyes CSKA Moscow Aktiv 141 / 131 40% 8 24.02.2027 -
Óscar Mingueza Crystal Palace Aktiv 151 / 156 40% 5 24.02.2027 -
Nicolás Fernández Mercau Shakhtar Aktiv 140 / 132 40% 2 24.02.2027 -
Tomás Ribeiro Cultural Leonesa Aktiv 114 / 113 40% 3 22.02.2027 -
Ethan Pye Stockport County Aktiv 113 / 117 40% 1 21.02.2027 -
Noah Sadiki Sunderland Aktiv 146 / 151 40% 1 14.02.2027 -
Gustavo Mantuan Zenit Aktiv 134 / 134 40% 1 08.02.2027 -
Jacques Ekomié Wrexham Aktiv 125 / 131 40% 2 04.02.2027 -
Toby Collyer West Bromwich Albion Aktiv 136 / 132 40% 3 04.02.2027 -
Dara O'Shea Ipswich Town Aktiv 142 / 134 40% 2 30.01.2027 -
Álex Centelles Levski Aktiv 118 / 124 40% 1 22.01.2027 -
Rubens Dinamo Moscow Aktiv 134 / 127 40% 1 19.01.2027 -
Robert-Jan Vanwesemael Sint-Truiden Aktiv 128 / 112 40% 1 19.01.2027 -
Marlon Gomes Shakhtar Aktiv 141 / 142 40% 1 16.01.2027 -
Victor Parada Spartak Moscow Aktiv 131 / 126 40% 1 15.01.2027 -
Nazareno Colombo Racing Club Aktiv 130 / 123 40% 1 15.01.2027 -
Kevin Amaro Racing Genk Aktiv 124 / 129 40% 1 11.01.2027 -
Pelle Mattsson Norwich City Aktiv 129 / 127 40% 1 08.01.2027 -
Jhon Velásquez Fortaleza CEIF Aktiv 102 / 114 72% 1 02.12.2026 Befürworten
Franco Ibarra Rosario Central Aktiv 125 / 125 40% 1 01.12.2026 -
Augusto Schott Talleres Aktiv 120 / 124 40% 1 01.12.2026 -
Yousef Salech Cardiff City Aktiv 121 / 117 40% 1 30.11.2026 -
Samuel Essende Young Boys Aktiv 124 / 130 40% 1 30.11.2026 -
Santiago González Tigre Aktiv 133 / 129 40% 4 28.11.2026 -
Georges-Kévin Nkoudou Al-Diriyah Aktiv 140 / 129 40% 1 28.11.2026 -
Lewis Morgan SuperSport United Aktiv 128 / 116 40% 3 27.11.2026 -
Joaquín García Vélez Aktiv 126 / 127 40% 4 26.11.2026 -
Ulises Ortegoza Talleres Aktiv 121 / 125 40% 2 24.11.2026 -
Rubén Duarte Legia Aktiv 132 / 127 40% 2 24.11.2026 -
Alex Luna Instituto Aktiv 121 / 128 40% 2 24.11.2026 -
Marco Asensio Fenerbahce Aktiv 149 / 150 40% 3 22.11.2026 -
Gastón Lodico Racing Club Aktiv 122 / 125 40% 1 22.11.2026 -
Randall Rodríguez River Plate Aktiv 109 / 117 40% 2 21.11.2026 -
Diego Rossi Monterrey Aktiv 131 / 130 40% 4 20.11.2026 -
Ozziel Herrera Tigres Aktiv 118 / 124 40% 4 20.11.2026 -
Luis Romo Guadalajara Aktiv 130 / 131 40% 5 20.11.2026 -
Oussama Idrissi Pachuca Aktiv 131 / 132 40% 5 19.11.2026 -
Franco Pardo Santos Laguna Aktiv 126 / 121 40% 2 18.11.2026 -
Víctor Guzmán Monterrey Aktiv 137 / 131 40% 1 18.11.2026 -
Aarón Molinas Defensa y Justicia Aktiv 131 / 123 40% 1 18.11.2026 -
Alan Cervantes Club America Aktiv 132 / 122 40% 1 18.11.2026 -
Jesús Ricardo Angulo Toluca Aktiv 130 / 128 40% 3 15.11.2026 -
Orbelín Pineda Monterrey Aktiv 142 / 147 40% 3 15.11.2026 -
Tiago Palacios Estudiantes Aktiv 122 / 134 40% 3 15.11.2026 -
Richard Ledezma Guadalajara Aktiv 128 / 132 40% 3 14.11.2026 -
José Castillo Guadalajara Aktiv 124 / 125 40% 1 14.11.2026 -
Santiago Núñez Estudiantes Aktiv 132 / 127 40% 2 13.11.2026 -
Kevin Álvarez Club America Aktiv 125 / 124 40% 2 13.11.2026 -
Nathan Silva Monterrey Aktiv 127 / 125 40% 1 13.11.2026 -
Carlos Rodríguez Cruz Azul Aktiv 133 / 144 40% 3 12.11.2026 -
Leandro Lozano Boca Juniors Aktiv 120 / 121 40% 1 12.11.2026 -
Felipe Peña Biafore Lanús Aktiv 132 / 124 40% 4 11.11.2026 -
Rômulo Tigres Aktiv 125 / 114 40% 1 11.11.2026 -
Richard Martinez Veracruz Aktiv 122 / 133 40% 3 10.11.2026 -
Facundo Miño Deportivo Riestra Aktiv 118 / 125 40% 1 10.11.2026 -
Siro Rosané Estudiantes Aktiv 120 / 117 40% 1 10.11.2026 -
Gerardo Arteaga Monterrey Aktiv 119 / 135 40% 7 08.11.2026 -
Damián Fernández Defensa y Justicia Aktiv 126 / 129 40% 1 08.11.2026 -
Ricardo Chávez Monterrey Aktiv 122 / 128 40% 1 08.11.2026 -
Erick Reyes Toluca Aktiv 131 / 138 40% 1 07.11.2026 Mehr Infos nötig
Alejandro Zendejas Club America Aktiv 135 / 131 40% 5 06.11.2026 -
Juan Pablo Domínguez Leon Aktiv 129 / 134 40% 2 05.11.2026 -
Nicolás Castro Toluca Aktiv 137 / 118 40% 2 04.11.2026 -
Iván Villalba Independiente Rivadavia Aktiv 118 / 119 40% 1 03.11.2026 -
Marcelino Moreno Lanús Aktiv 125 / 130 40% 1 02.11.2026 -
Pedro Vite Pumas UNAM Aktiv 130 / 116 40% 1 29.10.2026 -
Jesús Angulo Tigres Aktiv 137 / 135 40% 1 28.10.2026 -
Joaquim Tigres Aktiv 131 / 133 40% 1 28.10.2026 -
Salvador Reyes Leon Aktiv 129 / 129 40% 1 27.10.2026 -
Jaminton Campaz Rosario Central Aktiv 133 / 120 40% 1 26.10.2026 -
Fernando Valenzuela Queretaro Aktiv 124 / 133 40% 3 22.10.2026 -
Carlos Gruezo Santos Laguna Aktiv 131 / 118 40% 2 22.10.2026 -
Beau Reus Waasland-Beveren Aktiv 130 / 127 40% 3 21.10.2026 -
Emanuel Coronel Rosario Central Aktiv 133 / 129 40% 1 21.10.2026 -
Willer Ditta Cruz Azul Aktiv 134 / 133 40% 1 21.10.2026 -
Manuel Rios La Equidad Aktiv 101 / 101 40% 2 18.10.2026 -
Killian Cahill Leyton Orient Aktiv 108 / 114 40% 2 18.10.2026 -
Ángel Maciel Tacuarembo Aktiv 105 / 104 40% 1 17.10.2026 -
Nahuel Galardi Maipú Aktiv 105 / 109 40% 1 16.10.2026 -
Tomáš Frühwald Bohemians 1905 Aktiv 110 / 115 40% 1 13.10.2026 -
Vincent Edafe Warri Wolves Aktiv 85 / 89 40% 1 13.10.2026 -
Miguel Acosta Argentinos Juniors Aktiv 113 / 105 40% 1 11.10.2026 -
Jorge Sánchez Atlas Aktiv 122 / 135 40% 2 09.10.2026 -
Gino Santilli Banfield Aktiv 109 / 115 40% 1 09.10.2026 -
Facundo Vila Estudiantes Aktiv 101 / 105 40% 1 07.10.2026 -
Duvan Rangel La Equidad Aktiv 132 / 138 40% 2 06.10.2026 -
Brian Rodríguez Club America Aktiv 127 / 128 40% 2 06.10.2026 -
Álvaro Angulo Pumas UNAM Aktiv 134 / 131 40% 4 06.10.2026 -
Federico Varese Racing Aktiv 109 / 116 40% 1 30.09.2026 -
Fernando Beltrán Leon Aktiv 120 / 126 40% 1 28.09.2026 -
Gustavo Calderari Colegiales Aktiv 92 / 102 40% 1 23.09.2026 -
Bryan González Guadalajara Aktiv 123 / 136 40% 1 16.09.2026 -
Ángel González Libertad Aktiv 110 / 111 40% 1 13.09.2026 -
Leonardo Gonzalez Cortulua Aktiv 126 / 120 40% 1 11.09.2026 -
Lucas Souto Defensa y Justicia Aktiv 118 / 121 40% 1 08.09.2026 -
Omar Campos Cruz Azul Aktiv 130 / 116 40% 1 08.09.2026 -
Sergio Reguilón Inter Miami CF Aktiv 146 / 130 40% 2 07.09.2026 -
Aliou Dieng Valencia Aktiv 131 / 134 40% 1 07.09.2026 -
Adalberto Carrasquilla Pumas UNAM Aktiv 131 / 128 40% 1 05.09.2026 -
Agustín Palavecino Cruz Azul Aktiv 143 / 133 40% 2 04.09.2026 -
Gonzalo Piovi Cruz Azul Aktiv 124 / 125 40% 2 30.08.2026 -
Allan Saint-Maximin Charlotte Football Club Aktiv 139 / 142 40% 1 27.08.2026 -
Víctor Guzmán Toluca Aktiv 135 / 128 40% 1 25.08.2026 -
Juninho Pumas UNAM Aktiv 120 / 134 40% 4 24.08.2026 -
Paxten Aaronson Colorado Rapids Aktiv 128 / 126 40% 1 24.08.2026 -
Leonardo Borja La Equidad Aktiv 150 / 150 40% 1 22.08.2026 -
Cristian Roldan Seattle Sounders Aktiv 133 / 120 40% 1 22.08.2026 -
Ryan Gauld Vancouver Whitecaps Aktiv 127 / 140 40% 1 20.08.2026 -
Efraín Álvarez Guadalajara Aktiv 122 / 122 40% 1 16.08.2026 -
Rodrigo Echeverría Leon Aktiv 121 / 131 40% 1 16.08.2026 -
Diego Lainez Tigres Aktiv 119 / 133 40% 1 11.08.2026 -
Pablo Durán Celta Aktiv 135 / 133 40% 1 01.08.2026 -